This is the latest recevied weather packets stored in our database for station/object MB7UWV-13. If no packets are shown the sender has not sent any weather packets the latest 1 day(s).
| Time | Temp. | Humidity | Pressure | Rain* | Wind** | Luminosity | Snow |
|---|---|---|---|---|---|---|---|
| 1778083406 | 11.67° C | 52% | 1002 hPa | 0 mm | - | - | - |
| 1778082506 | 11.11° C | 51% | 1002 hPa | 0 mm | - | - | - |
| 1778079805 | 11.11° C | 52% | 1002 hPa | 0 mm | - | - | - |
| 1778072605 | 11.67° C | 50% | 1002 hPa | 0 mm | - | - | - |
| 1778071705 | 12.22° C | 47% | 1002.4 hPa | 0 mm | - | - | - |
| 1778069911 | 12.78° C | 45% | 1002.4 hPa | 0 mm | - | - | - |
| 1778066305 | 13.33° C | 47% | 1003 hPa | 0 mm | - | - | - |
| 1778063637 | 12.22° C | 48% | 1003 hPa | 0 mm | - | - | - |
| 1778062705 | 12.22° C | 49% | 1003 hPa | 0 mm | - | - | - |
| 1778060005 | 11.11° C | 56% | 1003.4 hPa | 0 mm | - | - | - |
| 1778059105 | 10.56° C | 59% | 1003 hPa | 0 mm | - | - | - |
| 1778055505 | 8.89° C | 65% | 1003.4 hPa | 0 mm | - | - | - |
| 1778053706 | 8.33° C | 66% | 1003.4 hPa | 0 mm | - | - | - |
| 1778052805 | 8.33° C | 67% | 1003.4 hPa | 0 mm | - | - | - |
| 1778051005 | 6.67° C | 71% | 1003.4 hPa | 0 mm | - | - | - |
| 1778050105 | 6.67° C | 70% | 1003.4 hPa | 0 mm | - | - | - |
| 1778046505 | 5.56° C | 73% | 1003.4 hPa | 0 mm | - | - | - |
| 1778045605 | 5° C | 74% | 1003 hPa | 0 mm | - | - | - |
| 1778044708 | 4.44° C | 75% | 1003 hPa | 0 mm | - | - | - |
| 1778042905 | 3.89° C | 77% | 1003.4 hPa | 0 mm | - | - | - |
| 1778042006 | 3.33° C | 79% | 1003.4 hPa | 0 mm | - | - | - |
| 1778041106 | 3.33° C | 81% | 1003 hPa | 0 mm | - | - | - |
| 1778040206 | 3.33° C | 82% | 1003 hPa | 0 mm | - | - | - |
| 1778039306 | 3.33° C | 82% | 1003.4 hPa | 0 mm | - | - | - |
| 1778038408 | 3.33° C | 81% | 1003 hPa | 0 mm | - | - | - |
* Rain latest hour (hover to see other rain measurements)
** Current wind speed in m/s (hover to see current wind gust speed)